Time;durP1;ratioP1;P1;durP2;ratioP2;P2;SDS_P1;SDS_P2;PMS_P1;PMS_P2;Temp;Humidity;BMP_temperature;BMP_pressure;BME280_temperature;BME280_humidity;BME280_pressure;Samples;Min_cycle;Max_cycle;Signal;HPM_P1;HPM_P2
2021/03/19 17:16:21;;;;;;;6.72;4.18;;;;;;;4.51;51.16;100348.19;3120234;23;20071;-74
2021/03/19 17:18:31;;;;;;;7.60;4.47;;;;;;;4.49;51.12;100352.72;3048334;28;20066;-74
2021/03/19 17:20:40;;;;;;;9.13;3.97;;;;;;;4.50;50.19;100357.06;3061996;29;20067;-76
2021/03/19 17:22:49;;;;;;;8.57;4.05;;;;;;;4.46;50.36;100364.34;3054223;29;20108;-76
2021/03/19 17:24:58;;;;;;;7.45;3.72;;;;;;;4.46;50.38;100364.34;3050130;29;20057;-76
2021/03/19 17:27:06;;;;;;;9.15;4.93;;;;;;;4.41;49.75;100363.81;3050531;29;20519;-76
2021/03/19 17:29:15;;;;;;;7.25;3.30;;;;;;;4.44;48.47;100371.53;3051602;29;20055;-75
2021/03/19 17:31:24;;;;;;;6.45;3.33;;;;;;;4.42;48.22;100362.00;3049668;29;20058;-75
2021/03/19 17:33:33;;;;;;;9.43;3.80;;;;;;;4.39;47.46;100375.47;3051368;29;20122;-75
2021/03/19 17:35:42;;;;;;;5.75;3.15;;;;;;;4.36;47.10;100382.63;3047795;29;20476;-75
2021/03/19 17:37:51;;;;;;;6.72;3.03;;;;;;;4.38;47.40;100385.19;3054226;29;20051;-75
2021/03/19 17:39:59;;;;;;;5.88;2.85;;;;;;;4.37;47.06;100386.13;3046912;29;20071;-76
2021/03/19 17:42:08;;;;;;;5.15;2.85;;;;;;;4.28;47.13;100387.56;3053139;29;20052;-75
2021/03/19 17:44:18;;;;;;;7.18;3.63;;;;;;;4.19;47.48;100383.69;3055661;29;20044;-75
2021/03/19 17:46:27;;;;;;;6.57;3.10;;;;;;;4.18;47.21;100376.69;3056055;29;20052;-76
2021/03/19 17:48:36;;;;;;;7.47;3.85;;;;;;;4.10;47.60;100378.97;3058565;29;20062;-76
2021/03/19 17:50:45;;;;;;;5.85;3.05;;;;;;;4.07;47.58;100392.38;3054368;29;20111;-76
2021/03/19 17:52:54;;;;;;;16.23;8.63;;;;;;;4.01;47.87;100390.13;3060290;29;20051;-77
2021/03/19 17:55:02;;;;;;;7.05;3.50;;;;;;;4.00;48.17;100405.16;3052571;29;20048;-76
2021/03/19 17:57:11;;;;;;;6.82;3.53;;;;;;;3.96;48.37;100402.78;3054684;29;20116;-75
2021/03/19 17:59:19;;;;;;;6.93;3.33;;;;;;;3.90;48.67;100404.84;3059679;29;20059;-76
2021/03/19 18:01:28;;;;;;;6.15;3.33;;;;;;;3.91;48.73;100411.00;3050618;29;20072;-76
2021/03/19 18:03:37;;;;;;;7.28;3.08;;;;;;;3.90;48.85;100410.13;3051609;29;20111;-76
2021/03/19 18:05:46;;;;;;;6.45;2.90;;;;;;;3.84;49.08;100410.50;3057687;29;20076;-76
2021/03/19 18:07:55;;;;;;;8.07;3.78;;;;;;;3.86;49.21;100413.06;3056373;29;20063;-77
2021/03/19 18:10:04;;;;;;;7.60;3.50;;;;;;;3.82;49.33;100415.03;3029014;29;20056;-76
2021/03/19 18:12:13;;;;;;;8.77;4.03;;;;;;;3.76;49.58;100412.78;3056874;29;20066;-76
2021/03/19 18:14:22;;;;;;;6.82;3.33;;;;;;;3.71;49.55;100420.97;3055806;29;20035;-76
2021/03/19 18:16:31;;;;;;;8.40;3.50;;;;;;;3.67;49.76;100418.63;3049273;29;20077;-78
2021/03/19 18:18:40;;;;;;;6.03;3.28;;;;;;;3.61;49.82;100418.97;3018078;29;20052;-77
2021/03/19 18:20:48;;;;;;;7.25;4.20;;;;;;;3.61;49.87;100421.59;3047028;29;20104;-76
2021/03/19 18:28:24;;;;;;;9.05;3.72;;;;;;;3.45;50.50;100425.16;3023032;29;20048;-77
2021/03/19 18:30:40;;;;;;;8.63;4.65;;;;;;;3.45;50.66;100422.50;3055541;29;20554;-77
2021/03/19 18:32:49;;;;;;;7.88;3.67;;;;;;;3.45;50.83;100429.59;3041225;29;20394;-75
2021/03/19 18:34:58;;;;;;;5.63;2.90;;;;;;;3.48;51.03;100424.13;3041698;29;20045;-76
2021/03/19 18:37:06;;;;;;;6.18;3.17;;;;;;;3.52;51.06;100430.94;3040165;29;20060;-77
2021/03/19 18:39:19;;;;;;;5.65;2.47;;;;;;;3.55;50.76;100436.03;3049983;29;20138;-76
2021/03/19 18:41:28;;;;;;;6.90;3.60;;;;;;;3.53;50.91;100438.78;3048299;29;20059;-77
2021/03/19 18:43:36;;;;;;;8.85;4.13;;;;;;;3.49;50.75;100445.19;3053586;29;20052;-77
2021/03/19 18:45:45;;;;;;;7.28;4.43;;;;;;;3.42;50.84;100442.06;3049049;29;20056;-77
2021/03/19 18:47:53;;;;;;;6.72;4.18;;;;;;;3.37;51.10;100453.84;3052548;29;20496;-76
2021/03/19 18:50:06;;;;;;;7.28;3.83;;;;;;;3.31;51.28;100452.38;3050892;29;20056;-76
2021/03/19 18:52:14;;;;;;;7.53;3.67;;;;;;;3.32;51.51;100450.59;3046017;29;20052;-76
2021/03/19 18:54:24;;;;;;;11.23;6.63;;;;;;;3.32;51.65;100447.94;3050836;29;20044;-76
2021/03/19 18:56:37;;;;;;;7.68;4.22;;;;;;;3.31;51.54;100444.47;3052035;29;20052;-76
2021/03/19 18:58:50;;;;;;;10.45;5.13;;;;;;;3.29;51.82;100446.34;3052128;29;20056;-76
2021/03/19 19:00:59;;;;;;;10.93;6.15;;;;;;;3.25;51.55;100458.88;3047876;29;20052;-76
2021/03/19 19:03:07;;;;;;;13.70;7.45;;;;;;;3.18;51.79;100454.88;3042930;29;20056;-76
2021/03/19 19:05:16;;;;;;;12.57;5.50;;;;;;;3.16;51.96;100462.03;3052385;29;20052;-77
2021/03/19 19:07:25;;;;;;;9.43;4.55;;;;;;;3.19;51.94;100467.16;3057070;29;20044;-77
2021/03/19 19:09:35;;;;;;;7.35;4.07;;;;;;;3.22;51.82;100464.31;3051978;29;20052;-78
2021/03/19 19:11:44;;;;;;;7.85;3.88;;;;;;;3.23;51.84;100473.13;3068050;29;20032;-77
2021/03/19 19:13:52;;;;;;;12.15;5.60;;;;;;;3.20;51.79;100468.88;3049806;29;20544;-77
2021/03/19 19:16:01;;;;;;;10.77;5.72;;;;;;;3.14;51.93;100461.28;3048148;29;20048;-77
2021/03/19 19:18:09;;;;;;;9.85;5.88;;;;;;;3.15;51.74;100465.63;3046427;29;20048;-77
2021/03/19 19:20:18;;;;;;;7.70;4.30;;;;;;;3.13;51.79;100472.78;3057998;29;20051;-77
2021/03/19 19:22:27;;;;;;;7.43;4.22;;;;;;;3.12;51.55;100471.94;3048559;29;20048;-77
2021/03/19 19:24:36;;;;;;;7.20;4.55;;;;;;;3.14;51.48;100471.00;3042151;29;20052;-77
2021/03/19 19:26:46;;;;;;;8.48;3.63;;;;;;;3.18;51.00;100478.66;3049546;29;20514;-77
2021/03/19 19:28:54;;;;;;;8.52;3.92;;;;;;;3.19;50.82;100474.22;3047919;29;20040;-77
2021/03/19 19:31:03;;;;;;;9.45;3.95;;;;;;;3.17;50.82;100476.97;3050357;29;20084;-76
2021/03/19 19:33:13;;;;;;;9.55;3.88;;;;;;;3.20;50.93;100481.22;3046581;29;20194;-77
2021/03/19 19:35:22;;;;;;;5.75;3.58;;;;;;;3.19;50.73;100482.16;3049240;29;20048;-77
2021/03/19 19:37:31;;;;;;;8.30;3.55;;;;;;;3.19;50.64;100485.66;3049055;29;20044;-78
2021/03/19 19:39:40;;;;;;;7.63;3.83;;;;;;;3.22;50.60;100488.09;3042229;29;20083;-77
2021/03/19 19:41:49;;;;;;;6.72;3.42;;;;;;;3.26;50.57;100489.66;3045688;29;20139;-76
2021/03/19 19:43:58;;;;;;;6.97;3.40;;;;;;;3.25;50.61;100487.09;3046393;29;20107;-78
2021/03/19 19:46:07;;;;;;;6.95;3.28;;;;;;;3.25;50.78;100490.59;3048127;29;20048;-77
2021/03/19 19:48:16;;;;;;;6.97;3.90;;;;;;;3.26;50.80;100492.28;3046611;29;20048;-77
2021/03/19 19:50:25;;;;;;;9.30;4.57;;;;;;;3.22;51.06;100498.69;3049264;29;20586;-78
2021/03/19 19:52:33;;;;;;;7.78;3.72;;;;;;;3.23;51.30;100504.81;3053787;29;20051;-78
2021/03/19 19:54:42;;;;;;;8.10;4.10;;;;;;;3.25;51.34;100509.09;3044255;29;20048;-77
2021/03/19 19:56:51;;;;;;;6.95;3.70;;;;;;;3.25;51.65;100511.72;3051326;29;20054;-77
2021/03/19 19:58:59;;;;;;;7.50;4.25;;;;;;;3.22;51.84;100517.19;3048612;29;20083;-77
2021/03/19 20:01:09;;;;;;;8.50;4.10;;;;;;;3.18;52.25;100513.00;3045657;29;20063;-77
2021/03/19 20:03:18;;;;;;;9.70;5.03;;;;;;;3.14;52.47;100524.69;3048102;29;20135;-77
2021/03/19 20:05:26;;;;;;;12.35;6.78;;;;;;;3.09;52.92;100530.22;3046280;29;20066;-77
2021/03/19 20:07:36;;;;;;;13.23;7.97;;;;;;;3.05;53.27;100527.81;3053200;29;20048;-77
2021/03/19 20:09:44;;;;;;;10.10;5.68;;;;;;;2.96;53.61;100535.31;3053946;29;20504;-78
2021/03/19 20:11:53;;;;;;;14.05;7.57;;;;;;;2.92;54.02;100543.50;3058440;29;20399;-78
2021/03/19 20:14:02;;;;;;;12.23;6.35;;;;;;;2.88;54.27;100544.63;3058270;29;20102;-78
2021/03/19 20:16:10;;;;;;;14.85;7.60;;;;;;;2.86;54.34;100543.84;3051168;29;20060;-78
2021/03/19 20:18:19;;;;;;;9.57;5.75;;;;;;;2.80;54.50;100545.88;3053041;29;20048;-77
2021/03/19 20:20:28;;;;;;;13.18;7.28;;;;;;;2.75;54.53;100547.91;3049565;29;20044;-76
2021/03/19 20:22:37;;;;;;;14.32;6.90;;;;;;;2.69;55.08;100557.94;3046342;29;20404;-77
2021/03/19 20:24:47;;;;;;;14.63;7.20;;;;;;;2.61;55.32;100560.97;3055539;29;20137;-77
2021/03/19 20:26:56;;;;;;;14.10;6.90;;;;;;;2.57;55.45;100565.56;3046917;29;20115;-77
2021/03/19 20:29:06;;;;;;;9.38;6.07;;;;;;;2.55;55.19;100564.78;3047298;29;20048;-76
2021/03/19 20:31:14;;;;;;;13.18;6.45;;;;;;;2.56;55.08;100574.41;3045549;29;20127;-77
2021/03/19 20:33:23;;;;;;;18.65;9.95;;;;;;;2.56;54.70;100569.13;3046735;29;20043;-76
2021/03/19 20:35:31;;;;;;;14.25;6.53;;;;;;;2.55;54.94;100575.34;3048746;29;20111;-76
2021/03/19 20:37:40;;;;;;;10.70;5.93;;;;;;;2.55;54.90;100583.28;3041160;29;20662;-77
2021/03/19 20:39:49;;;;;;;11.60;6.20;;;;;;;2.56;54.94;100577.06;3051311;29;20400;-77
2021/03/19 20:41:58;;;;;;;13.68;7.10;;;;;;;2.51;55.16;100576.47;3049293;29;20056;-77
2021/03/19 20:44:07;;;;;;;12.32;6.88;;;;;;;2.55;55.18;100582.44;3049315;29;20076;-77
2021/03/19 20:46:16;;;;;;;11.57;6.75;;;;;;;2.52;55.29;100583.44;3052100;29;20060;-77
2021/03/19 20:48:26;;;;;;;12.98;7.32;;;;;;;2.48;55.67;100592.44;3048558;29;20059;-76
2021/03/19 20:50:35;;;;;;;12.95;6.75;;;;;;;2.48;55.66;100588.03;3049233;29;20074;-78
2021/03/19 20:52:44;;;;;;;13.57;6.35;;;;;;;2.46;56.05;100589.03;3046576;29;20055;-78
2021/03/19 20:54:53;;;;;;;12.32;6.38;;;;;;;2.42;55.98;100598.06;3047088;29;20435;-77
2021/03/19 20:57:01;;;;;;;11.02;6.65;;;;;;;2.42;56.21;100592.78;3051037;29;20044;-77
2021/03/19 20:59:10;;;;;;;9.65;6.10;;;;;;;2.40;56.42;100610.47;3049726;29;20056;-77
2021/03/19 21:01:18;;;;;;;10.65;6.80;;;;;;;2.41;56.60;100598.97;3052660;29;20051;-77
2021/03/19 21:03:30;;;;;;;12.70;6.30;;;;;;;2.38;56.80;100607.03;3041414;29;20063;-77
2021/03/19 21:05:20;;;;;;;;;;;;;;;2.36;56.66;100615.06;3055732;29;20047;-76
2021/03/19 21:07:29;;;;;;;14.53;6.37;;;;;;;2.38;56.82;100615.84;3050213;29;19982;-77
2021/03/19 21:09:38;;;;;;;11.80;6.70;;;;;;;2.36;57.03;100614.22;3051020;29;20291;-76
2021/03/19 21:11:46;;;;;;;12.82;6.95;;;;;;;2.35;57.05;100621.25;3052880;29;20055;-77
2021/03/19 21:13:55;;;;;;;9.57;5.78;;;;;;;2.35;57.05;100623.91;3050853;29;20236;-77
2021/03/19 21:16:05;;;;;;;14.02;6.40;;;;;;;2.30;56.93;100623.28;3058943;29;20134;-77
2021/03/19 21:18:15;;;;;;;12.98;6.65;;;;;;;2.31;56.90;100619.72;3045953;29;20901;-77
2021/03/19 21:20:24;;;;;;;9.00;5.07;;;;;;;2.35;56.77;100629.19;3041553;29;20056;-77
2021/03/19 21:22:32;;;;;;;10.52;5.25;;;;;;;2.36;56.65;100624.78;3051488;29;20464;-76
2021/03/19 21:24:41;;;;;;;9.52;5.43;;;;;;;2.36;56.76;100633.53;3052462;29;20136;-77
2021/03/19 21:26:50;;;;;;;11.07;5.65;;;;;;;2.31;56.63;100633.75;3055008;29;20084;-77
2021/03/19 21:28:59;;;;;;;12.15;5.72;;;;;;;2.29;56.81;100630.34;3050821;29;20412;-77
2021/03/19 21:31:07;;;;;;;8.52;4.78;;;;;;;2.31;56.81;100632.91;3041307;29;20464;-77
2021/03/19 21:33:19;;;;;;;9.55;5.05;;;;;;;2.37;56.85;100629.09;3048768;29;20052;-79
2021/03/19 21:35:29;;;;;;;9.20;5.45;;;;;;;2.41;56.73;100631.50;3054097;29;20063;-77
2021/03/19 21:37:37;;;;;;;9.02;5.18;;;;;;;2.42;56.69;100629.72;3054694;29;20084;-77
2021/03/19 21:39:51;;;;;;;9.27;5.20;;;;;;;2.42;56.79;100630.56;3057332;29;20088;-77
2021/03/19 21:42:00;;;;;;;7.45;4.50;;;;;;;2.41;56.80;100634.13;3051844;29;20069;-77
2021/03/19 21:44:09;;;;;;;11.65;5.10;;;;;;;2.47;56.77;100638.25;3051117;29;20056;-77
2021/03/19 21:46:18;;;;;;;9.57;4.38;;;;;;;2.50;56.70;100635.47;3050380;29;20555;-77
2021/03/19 21:48:27;;;;;;;8.13;4.80;;;;;;;2.54;56.76;100636.16;3051935;29;20052;-77
2021/03/19 21:50:39;;;;;;;9.75;5.13;;;;;;;2.49;56.87;100642.53;3053195;29;20267;-77
2021/03/19 21:52:48;;;;;;;8.75;5.15;;;;;;;2.39;57.19;100645.69;3051196;29;20040;-77
2021/03/19 21:54:56;;;;;;;9.45;4.82;;;;;;;2.40;57.27;100644.78;3045018;29;20052;-77
2021/03/19 21:57:05;;;;;;;12.65;5.15;;;;;;;2.38;57.59;100638.72;3051831;29;20052;-77
2021/03/19 21:59:14;;;;;;;8.07;5.00;;;;;;;2.32;57.79;100639.88;3053506;29;20083;-77
2021/03/19 22:01:22;;;;;;;8.88;4.68;;;;;;;2.27;57.83;100642.75;3049832;29;20137;-76
2021/03/19 22:03:32;;;;;;;9.88;4.60;;;;;;;2.21;58.08;100637.78;3039678;29;20060;-77
2021/03/19 22:05:41;;;;;;;8.40;4.60;;;;;;;2.22;58.34;100638.66;3052437;29;20103;-78
2021/03/19 22:07:50;;;;;;;8.73;4.85;;;;;;;2.25;58.23;100652.53;3052247;29;20052;-77
2021/03/19 22:09:59;;;;;;;8.10;4.50;;;;;;;2.27;58.26;100655.09;3040723;29;20111;-77
2021/03/19 22:12:08;;;;;;;7.50;3.90;;;;;;;2.32;58.29;100656.56;3043155;29;20052;-77
2021/03/19 22:14:17;;;;;;;8.05;4.45;;;;;;;2.37;58.35;100652.84;3053535;29;20063;-77
2021/03/19 22:16:25;;;;;;;10.00;5.45;;;;;;;2.35;58.57;100652.94;3049159;29;20048;-77
2021/03/19 22:18:34;;;;;;;9.18;5.18;;;;;;;2.29;58.80;100662.00;3039984;29;20044;-77
2021/03/19 22:20:44;;;;;;;15.57;6.53;;;;;;;2.22;58.97;100657.13;3046327;29;20119;-77
2021/03/19 22:22:52;;;;;;;11.10;6.32;;;;;;;2.20;59.06;100656.34;3049358;29;20040;-77
2021/03/19 22:25:10;;;;;;;13.63;7.57;;;;;;;2.12;59.37;100659.34;3051378;29;20052;-77
2021/03/19 22:27:37;;;;;;;11.38;5.65;;;;;;;2.12;59.49;100660.22;3043721;29;20504;-77
2021/03/19 22:29:50;;;;;;;8.98;4.68;;;;;;;2.16;59.62;100666.19;3052747;29;20090;-77
2021/03/19 22:31:58;;;;;;;15.43;6.30;;;;;;;2.18;59.46;100672.22;3050686;29;20091;-77
2021/03/19 22:34:07;;;;;;;10.95;6.60;;;;;;;2.14;59.55;100665.41;3040271;29;20062;-77
2021/03/19 22:36:19;;;;;;;13.65;7.32;;;;;;;1.97;59.94;100666.22;3047055;29;20051;-77
2021/03/19 22:38:29;;;;;;;11.10;5.78;;;;;;;1.96;60.13;100665.38;3053392;29;20055;-77
2021/03/19 22:40:38;;;;;;;11.98;6.25;;;;;;;1.90;60.19;100663.03;3315134;23;20022;31
2021/03/19 22:42:47;;;;;;;11.07;6.47;;;;;;;1.92;60.07;100670.88;3034263;29;20071;-77
2021/03/19 22:44:56;;;;;;;14.07;7.70;;;;;;;1.82;60.23;100673.97;3041011;29;20053;-77
2021/03/19 22:47:06;;;;;;;12.60;6.90;;;;;;;1.75;60.57;100667.25;3028069;29;20056;-77
2021/03/19 22:49:15;;;;;;;12.60;6.63;;;;;;;1.73;60.79;100662.97;3030631;29;20060;-77
2021/03/19 22:51:24;;;;;;;15.00;7.05;;;;;;;1.70;60.79;100670.09;3020010;29;20561;-77
2021/03/19 22:53:34;;;;;;;12.07;6.80;;;;;;;1.69;60.91;100670.19;3023009;29;20077;-76
2021/03/19 22:55:44;;;;;;;12.18;7.05;;;;;;;1.63;61.08;100673.97;3023193;29;20060;-77
2021/03/19 22:57:53;;;;;;;12.30;6.82;;;;;;;1.59;61.28;100676.81;3022662;29;20085;-77
2021/03/19 23:00:05;;;;;;;12.68;6.63;;;;;;;1.56;61.59;100680.44;3024628;29;20061;-77
2021/03/19 23:02:17;;;;;;;12.45;6.35;;;;;;;1.56;61.40;100683.09;3021295;29;20048;-77
2021/03/19 23:04:26;;;;;;;11.88;6.93;;;;;;;1.56;61.54;100675.19;3024641;29;20709;-77
2021/03/19 23:06:45;;;;;;;11.73;6.78;;;;;;;1.63;61.39;100673.13;3019990;29;20073;-78
2021/03/19 23:08:54;;;;;;;9.95;4.40;;;;;;;1.67;61.41;100678.16;3018102;29;20060;-77
2021/03/19 23:11:02;;;;;;;17.35;6.53;;;;;;;1.71;61.31;100673.59;3026665;29;20061;-77
2021/03/19 23:13:11;;;;;;;11.70;5.65;;;;;;;1.71;61.20;100670.97;3023814;29;20045;-78
2021/03/19 23:15:21;;;;;;;10.63;6.55;;;;;;;1.72;61.09;100672.69;3022500;29;20049;-77
2021/03/19 23:17:36;;;;;;;10.30;6.10;;;;;;;1.67;61.24;100678.16;3027180;29;20120;-77
2021/03/19 23:19:47;;;;;;;12.07;6.57;;;;;;;1.62;61.34;100672.25;3025153;29;20045;-77
2021/03/19 23:21:56;;;;;;;14.05;6.65;;;;;;;1.63;61.42;100675.75;3021744;29;20049;-77
2021/03/19 23:24:11;;;;;;;14.45;6.50;;;;;;;1.64;61.44;100675.66;3023671;29;20504;-77
2021/03/19 23:26:20;;;;;;;10.38;6.35;;;;;;;1.61;61.35;100675.81;3029279;29;20049;-77
2021/03/19 23:28:28;;;;;;;13.75;6.65;;;;;;;1.59;61.30;100679.44;3024853;29;20049;-77
2021/03/19 23:30:37;;;;;;;12.05;7.25;;;;;;;1.54;61.55;100684.94;3011329;29;20065;-78
2021/03/19 23:32:45;;;;;;;11.07;6.22;;;;;;;1.52;61.71;100679.75;3029371;29;20057;-77
2021/03/19 23:34:54;;;;;;;12.20;6.65;;;;;;;1.46;62.07;100676.53;3019057;29;20409;-77
2021/03/19 23:37:03;;;;;;;14.55;8.02;;;;;;;1.47;62.12;100688.78;3021712;29;20519;-77
2021/03/19 23:39:11;;;;;;;13.75;7.82;;;;;;;1.47;62.29;100688.78;3023677;29;20489;-77
2021/03/19 23:41:20;;;;;;;12.32;7.55;;;;;;;1.46;62.61;100692.34;3027127;29;20057;-77
2021/03/19 23:43:28;;;;;;;13.65;7.38;;;;;;;1.48;62.79;100686.06;3024659;29;20441;-77
2021/03/19 23:45:37;;;;;;;13.27;6.47;;;;;;;1.50;62.85;100689.50;3024368;29;20450;-78
2021/03/19 23:47:46;;;;;;;18.15;7.85;;;;;;;1.48;63.13;100693.13;3035435;29;20057;-79
2021/03/19 23:50:08;;;;;;;15.77;8.52;;;;;;;1.43;63.39;100703.00;3034164;29;20064;-78
2021/03/19 23:52:17;;;;;;;17.67;9.00;;;;;;;1.39;63.61;100699.66;3022971;29;20052;-77
2021/03/19 23:54:27;;;;;;;16.23;8.10;;;;;;;1.25;64.14;100695.00;3022524;29;20052;-78
2021/03/19 23:56:36;;;;;;;17.67;9.30;;;;;;;1.21;64.51;100694.31;3028377;29;20053;-76
2021/03/19 23:58:48;;;;;;;16.40;8.25;;;;;;;1.21;64.57;100709.28;3021891;29;20057;-76
